Latest Coastal Weather Observations for Redcliffe

IDQ60701

Issued at 2:42 am EST Saturday 1 October 2016 (issued every 10 minutes, with the page automatically refreshed every 10 minutes)

About coastal observations | Map of coastal stations | Coastal observations for QLD | Marine services | Other Formats
Station Details ID: 040958 Name: REDCLIFFE Lat: -27.22 Lon: 153.09 Height: 12.6 m
Data from the previous 72 hours. | See also: Recent months at Redcliffe
Date/Time
EST
Temp
°C
Wind Pressure Rain since
9am
mm
Weather Cloud Vis
km
Sea
Height
m
Swell
Dir  Spd
kts
Gust
kts
hPa Trend Height
m
Period
s
Dir
01/02:30am 13.7 WNW 6 9 1010.3 - 0.0 - - - - - - -
01/02:00am 14.3 NW 5 7 1010.5 - 0.0 - - - - - - -
01/01:30am 14.9 NW 5 5 1010.1 - 0.0 - - - - - - -
01/01:00am 15.2 WNW 5 7 1010.1 - 0.0 - - - - - - -
01/12:30am 15.2 NW 5 7 1010.4 - 0.0 - - - - - - -
01/12:00am 15.3 NW 5 7 1010.5 - 0.0 - - - - - - -
 
Date/Time
EST
Temp
°C
Wind Pressure Rain since
9am
mm
Weather Cloud Vis
km
Sea
Height
m
Swell
Dir  Spd
kts
Gust
kts
hPa Trend Height
m
Period
s
Dir
30/11:30pm 15.6 NW 5 7 1010.3 - 0.0 - - - - - - -
30/11:00pm 16.5 WNW 5 6 1010.1 - 0.0 - - - - - - -
30/10:30pm 17.1 WNW 5 6 1010.7 - 0.0 - - - - - - -
30/10:00pm 17.6 WNW 5 7 1010.7 - 0.0 - - - - - - -
30/09:30pm 17.1 NNW 4 6 1010.4 - 0.0 - - - - - - -
30/09:00pm 17.8 NNW 3 6 1010.1 - 0.0 - - - - - - -
30/08:30pm 19.2 W 7 13 1009.8 - 0.0 - - - - - - -
30/08:00pm 19.3 W 7 10 1009.5 - 0.0 - - - - - - -
30/07:30pm 20.1 WSW 3 5 1008.8 - 0.0 - - - - - - -
30/07:00pm 20.1 W 5 7 1008.1 - 0.0 - - - - - - -
30/06:30pm 20.7 W 8 10 1007.5 - 0.0 - - - - - - -
30/06:00pm 21.9 WNW 11 19 1006.9 - 0.0 - - - - - - -
30/05:30pm 22.8 W 12 17 1006.4 - 0.0 - - - - - - -
30/05:00pm 23.9 W 10 15 1005.6 - 0.0 - - - - - - -
30/04:30pm 24.4 W 14 22 1004.8 - 0.0 - - - - - - -
30/04:00pm 25.2 W 12 21 1004.5 - 0.0 - - - - - - -
30/03:30pm 25.2 W 13 21 1004.1 - 0.0 - - - - - - -
30/03:00pm 25.9 WNW 13 19 1003.6 - 0.0 - - - - - - -
30/02:30pm 26.1 NW 14 22 1003.7 - 0.0 - - - - - - -
30/02:00pm 26.1 NNW 15 21 1003.7 - 0.0 - - - - - - -
30/01:30pm 25.1 NW 16 24 1004.1 - 0.0 - - - - - - -
30/01:00pm 25.0 NW 13 20 1004.3 - 0.0 - - - - - - -
30/12:30pm 24.7 NW 13 20 1004.7 - 0.0 - - - - - - -
30/12:00pm 24.0 NW 12 19 1004.9 - 0.0 - - - - - - -
30/11:30am 23.6 NNW 13 18 1005.7 - 0.0 - - - - - - -
30/11:00am 23.1 NW 12 17 1006.2 - 0.0 - - - - - - -
30/10:30am 22.2 NW 12 18 1006.4 - 0.0 - - - - - - -
30/10:00am 22.1 WNW 11 18 1006.6 - 0.0 - - - - - - -
30/09:30am 22.2 W 12 18 1006.6 - 0.0 - - - - - - -
30/09:00am 21.5 WSW 8 12 1006.7 - 8.0 - - - - - - -
30/08:30am 20.4 WSW 9 12 1007.1 - 8.0 - - - - - - -
30/08:00am 19.7 WSW 10 14 1007.3 - 8.0 - - - - - - -
30/07:30am 19.9 WSW 9 12 1006.9 - 8.0 - - - - - - -
30/07:00am 19.4 W 7 9 1006.7 - 8.0 - - - - - - -
30/06:30am 18.9 NW 5 7 1006.5 - 8.0 - - - - - - -
30/06:00am 18.3 NW 5 6 1006.0 - 7.8 - - - - - - -
30/05:30am 18.1 NNW 4 5 1005.9 - 7.8 - - - - - - -
30/05:00am 18.2 NNW 4 5 1005.6 - 7.8 - - - - - - -
30/04:30am 18.4 NNW 5 8 1005.4 - 7.8 - - - - - - -
30/04:00am 18.4 NW 5 7 1005.4 - 7.8 - - - - - - -
30/03:30am 18.3 NNW 7 9 1005.7 - 7.6 - - - - - - -
30/03:00am 18.2 WNW 7 10 1005.8 - 4.0 Rain - - - - - -
30/02:30am 19.0 N 13 20 1005.3 - 0.0 - - - - - - -
30/02:00am 19.4 NNW 8 12 1005.6 - 0.0 - - - - - - -
30/01:30am 19.3 N 11 15 1005.9 - 0.0 - - - - - - -
30/01:00am 18.8 N 11 16 1006.1 - 0.0 - - - - - - -
30/12:30am 18.8 N 12 18 1006.5 - 0.0 - - - - - - -
30/12:00am 18.9 N 13 16 1006.8 - 0.0 - - - - - - -
 
Date/Time
EST
Temp
°C
Wind Pressure Rain since
9am
mm
Weather Cloud Vis
km
Sea
Height
m
Swell
Dir  Spd
kts
Gust
kts
hPa Trend Height
m
Period
s
Dir
29/11:30pm 18.9 N 13 17 1007.2 - 0.0 - - - - - - -
29/11:00pm 18.5 N 11 15 1007.5 - 0.0 - - - - - - -
29/10:30pm 18.5 N 11 16 1007.6 - 0.0 - - - - - - -
29/10:00pm 18.7 N 13 18 1007.6 - 0.0 - - - - - - -
29/09:30pm 18.6 N 12 19 1007.7 - 0.0 - - - - - - -
29/09:00pm 18.6 N 12 15 1007.8 - 0.0 - - - - - - -
29/08:30pm 19.1 N 13 17 1008.0 - 0.0 - - - - - - -
29/08:00pm 19.0 N 16 21 1007.9 - 0.0 - - - - - - -
29/07:30pm 19.1 N 18 24 1007.7 - 0.0 - - - - - - -
29/07:00pm 19.4 N 16 19 1007.3 - 0.0 - - - - - - -
29/06:30pm 20.1 N 12 18 1007.2 - 0.0 - - - - - - -
29/06:00pm 20.1 N 11 16 1007.1 - 0.0 - - - - - - -
29/05:30pm 20.1 N 12 15 1006.8 - 0.0 - - - - - - -
29/05:00pm 19.9 N 8 11 1006.8 - 0.0 - - - - - - -
29/04:30pm 20.1 N 7 12 1006.6 - 0.0 - - - - - - -
29/04:00pm 20.2 NW 7 10 1006.8 - 0.0 - - - - - - -
29/03:30pm 20.5 NW 8 11 1006.6 - 0.0 - - - - - - -
29/03:00pm 21.7 NNW 10 14 1006.6 - 0.0 - - - - - - -
29/02:30pm 22.1 N 14 19 1006.7 - 0.0 - - - - - - -
29/02:00pm 22.0 N 10 15 1006.9 - 0.0 - - - - - - -
29/01:30pm 22.1 N 14 19 1007.1 - 0.0 - - - - - - -
29/01:00pm 22.2 N 18 23 1007.7 - 0.0 - - - - - - -
29/12:30pm 22.3 N 15 20 1007.9 - 0.0 - - - - - - -
29/12:00pm 22.5 N 12 16 1008.0 - 0.0 - - - - - - -
29/11:30am 23.0 N 13 18 1008.4 - 0.0 - - - - - - -
29/11:00am 22.6 N 17 21 1008.4 - 0.0 - - - - - - -
29/10:30am 22.6 N 14 18 1008.6 - 0.0 - - - - - - -
29/10:00am 22.6 N 12 16 1009.2 - 0.0 - - - - - - -
29/09:30am 21.2 N 13 17 1009.6 - 0.0 - - - - - - -
29/09:00am 21.4 N 15 18 1009.4 - 0.0 - - - - - - -
29/08:30am 20.4 N 10 13 1009.6 - 0.0 - - - - - - -
29/08:00am 20.1 N 10 14 1009.8 - 0.0 - - - - - - -
29/07:30am 20.1 N 13 15 1009.7 - 0.0 - - - - - - -
29/07:00am 19.7 N 11 15 1009.7 - 0.0 - - - - - - -
29/06:30am 19.6 N 9 13 1009.5 - 0.0 - - - - - - -
29/06:00am 19.5 N 8 10 1009.4 - 0.0 - - - - - - -
29/05:30am 19.3 N 10 12 1009.4 - 0.0 - - - - - - -
29/05:00am 19.1 N 9 11 1009.2 - 0.0 - - - - - - -
29/04:30am 18.7 N 9 12 1009.2 - 0.0 - - - - - - -
29/04:00am 18.5 N 8 11 1009.3 - 0.0 - - - - - - -
29/03:30am 18.6 N 7 9 1009.2 - 0.0 - - - - - - -
29/03:00am 18.3 N 7 10 1009.4 - 0.0 - - - - - - -
29/02:30am 18.1 NNW 6 7 1009.9 - 0.0 - - - - - - -
29/02:00am 18.0 NNW 6 7 1010.3 - 0.0 - - - - - - -
29/01:30am 18.0 NNW 5 6 1010.6 - 0.0 - - - - - - -
29/01:00am 18.3 NNW 5 5 1011.0 - 0.0 - - - - - - -
29/12:30am 18.6 NW 4 5 1011.5 - 0.0 - - - - - - -
29/12:00am 19.1 NNW 4 5 1012.0 - 0.0 - - - - - - -
 
Date/Time
EST
Temp
°C
Wind Pressure Rain since
9am
mm
Weather Cloud Vis
km
Sea
Height
m
Swell
Dir  Spd
kts
Gust
kts
hPa Trend Height
m
Period
s
Dir
28/11:30pm 19.7 NNW 4 5 1012.2 - 0.0 - - - - - - -
28/11:00pm 20.1 N 4 5 1012.2 - 0.0 - - - - - - -
28/10:30pm 20.1 NNW 8 13 1012.5 - 0.0 - - - - - - -
28/10:00pm 20.8 NE 13 16 1012.6 - 0.0 - - - - - - -
28/09:30pm 20.7 NNE 15 16 1012.7 - 0.0 - - - - - - -
28/09:00pm 20.9 NE 12 14 1012.9 - 0.0 - - - - - - -
28/08:30pm 20.6 NE 12 15 1012.6 - 0.0 - - - - - - -
28/08:00pm 20.5 ENE 13 16 1012.2 - 0.0 - - - - - - -
28/07:30pm 20.6 NE 13 15 1012.2 - 0.0 - - - - - - -
28/07:00pm 20.8 ENE 13 15 1012.3 - 0.0 - - - - - - -
28/06:30pm 20.9 ENE 12 14 1012.2 - 0.0 - - - - - - -
28/06:00pm 21.2 ENE 13 15 1012.1 - 0.0 - - - - - - -
28/05:30pm 21.3 NE 11 13 1011.7 - 0.0 - - - - - - -
28/05:00pm 21.4 NE 12 15 1011.5 - 0.0 - - - - - - -
28/04:30pm 22.1 ENE 11 14 1011.2 - 0.0 - - - - - - -
28/04:00pm 22.5 ENE 13 15 1010.5 - 0.0 - - - - - - -
28/03:30pm 22.9 E 13 15 1010.2 - 0.0 - - - - - - -
28/03:00pm 23.3 E 14 17 1010.4 - 0.0 - - - - - - -
28/02:30pm 23.2 E 15 17 1010.6 - 0.0 - - - - - - -
28/02:00pm 23.2 E 14 16 1010.8 - 0.0 - - - - - - -
28/01:30pm 23.4 E 13 15 1011.3 - 0.0 - - - - - - -
28/01:00pm 23.6 E 11 12 1011.7 - 0.0 - - - - - - -
28/12:30pm 24.0 E 11 13 1012.0 - 0.0 - - - - - - -
28/12:00pm 23.2 E 10 12 1012.3 - 0.0 - - - - - - -
28/11:30am 23.9 ENE 10 12 1013.0 - 0.0 - - - - - - -
28/11:00am 24.4 E 7 9 1013.4 - 0.0 - - - - - - -
28/10:30am 25.2 E 4 5 1013.8 - 0.0 - - - - - - -
28/10:00am 24.9 SE 4 5 1014.0 - 0.0 - - - - - - -
28/09:30am 24.4 SSE 6 7 1014.0 - 0.0 - - - - - - -
28/09:00am 23.1 ESE 6 7 1014.0 - 0.0 - - - - - - -
28/08:30am 21.9 W 5 7 1014.2 - 0.0 - - - - - - -
28/08:00am 20.6 WSW 5 7 1014.2 - 0.0 - - - - - - -
28/07:30am 19.2 WSW 5 7 1013.9 - 0.0 - - - - - - -
28/07:00am 17.5 WSW 5 7 1013.5 - 0.0 - - - - - - -
28/06:30am 15.4 WSW 5 6 1013.0 - 0.0 - - - - - - -
28/06:00am 14.8 SW 4 5 1012.6 - 0.0 - - - - - - -
28/05:30am 14.7 WNW 7 8 1012.3 - 0.0 - - - - - - -
28/05:00am 15.7 WNW 6 9 1011.9 - 0.0 - - - - - - -
28/04:30am 15.9 NW 7 8 1011.5 - 0.0 - - - - - - -
28/04:00am 15.9 NW 7 9 1011.3 - 0.0 - - - - - - -
28/03:30am 16.8 WNW 6 9 1011.0 - 0.0 - - - - - - -
28/03:00am 14.8 NW 7 8 1011.1 - 0.0 - - - - - - -

Other Formats:

Comma delimited format used in spreadsheet applications
http://www.bom.gov.au/fwo/IDQ60701/IDQ60701.95591.axf

JavaScript Object Notation format (JSON) in row-major order
http://www.bom.gov.au/fwo/IDQ60701/IDQ60701.95591.json